Time;durP1;ratioP1;P1;durP2;ratioP2;P2;SDS_P1;SDS_P2;PMS_P1;PMS_P2;Temp;Humidity;BMP_temperature;BMP_pressure;BME280_temperature;BME280_humidity;BME280_pressure;Samples;Min_cycle;Max_cycle;Signal;HPM_P1;HPM_P2
2022/05/10 00:00:53;;;;;;;;;;;18.50;74.00;;;;;;5051639;28;19936;-75
2022/05/10 00:03:21;;;;;;;;;;;18.50;74.00;;;;;;5036151;28;19928;-76
2022/05/10 00:05:48;;;;;;;;;;;18.50;74.10;;;;;;5053700;28;19978;-76
2022/05/10 00:08:16;;;;;;;;;;;18.50;74.10;;;;;;5057417;28;20372;-76
2022/05/10 00:10:43;;;;;;;;;;;18.50;74.10;;;;;;5053085;28;19939;-78
2022/05/10 00:13:11;;;;;;;;;;;18.50;74.00;;;;;;5037663;28;19948;-77
2022/05/10 00:15:38;;;;;;;;;;;18.50;74.20;;;;;;5034551;28;19932;-76
2022/05/10 00:18:07;;;;;;;;;;;18.50;74.00;;;;;;5058829;28;20311;-79
2022/05/10 00:20:34;;;;;;;;;;;18.50;74.10;;;;;;5059073;28;19924;-77
2022/05/10 00:23:01;;;;;;;;;;;18.50;74.10;;;;;;5055397;28;19924;-76
2022/05/10 00:25:31;;;;;;;;;;;18.50;74.20;;;;;;5056769;28;19925;-75
2022/05/10 00:27:58;;;;;;;;;;;18.50;74.20;;;;;;5057656;28;19928;-76
2022/05/10 00:30:24;;;;;;;;;;;18.50;74.20;;;;;;5055913;28;19932;-75
2022/05/10 00:32:51;;;;;;;;;;;18.50;74.10;;;;;;5053636;28;19925;-79
2022/05/10 00:35:22;;;;;;;;;;;18.50;74.10;;;;;;5036669;28;20338;-77
2022/05/10 00:37:49;;;;;;;;;;;18.50;74.20;;;;;;5053695;28;19965;-78
2022/05/10 00:40:18;;;;;;;;;;;18.50;74.10;;;;;;5057020;28;19983;-75
2022/05/10 00:42:51;;;;;;;;;;;18.50;74.10;;;;;;5049771;28;19944;-76
2022/05/10 00:45:21;;;;;;;;;;;18.50;74.20;;;;;;5035482;28;19925;-75
2022/05/10 00:47:50;;;;;;;;;;;18.50;74.20;;;;;;5046604;28;20027;-76
2022/05/10 00:50:21;;;;;;;;;;;18.50;74.10;;;;;;5060268;28;19928;-75
2022/05/10 00:52:52;;;;;;;;;;;18.50;74.20;;;;;;5035610;28;19943;-76
2022/05/10 00:55:22;;;;;;;;;;;18.50;74.20;;;;;;5060684;28;19924;-75
2022/05/10 00:57:50;;;;;;;;;;;18.50;74.20;;;;;;5055925;28;19941;-76
2022/05/10 01:00:18;;;;;;;;;;;18.50;74.20;;;;;;5050454;28;20017;-77
2022/05/10 01:02:51;;;;;;;;;;;18.50;74.20;;;;;;5061201;28;20021;-75
2022/05/10 01:05:20;;;;;;;;;;;18.50;74.20;;;;;;5062491;28;20382;-78
2022/05/10 01:07:52;;;;;;;;;;;18.50;74.20;;;;;;5059867;28;19963;-77
2022/05/10 01:10:25;;;;;;;;;;;18.50;74.20;;;;;;5058500;28;19928;-74
2022/05/10 01:12:54;;;;;;;;;;;18.50;74.30;;;;;;5054277;28;19943;-78
2022/05/10 01:15:23;;;;;;;;;;;18.50;74.30;;;;;;5058880;28;19932;-77
2022/05/10 01:17:52;;;;;;;;;;;18.50;74.20;;;;;;5038984;28;20676;-77
2022/05/10 01:20:21;;;;;;;;;;;18.50;74.20;;;;;;5055026;28;20461;-78
2022/05/10 01:22:55;;;;;;;;;;;18.50;74.20;;;;;;5053280;28;20017;-77
2022/05/10 01:25:31;;;;;;;;;;;18.50;74.30;;;;;;5058905;28;19924;-75
2022/05/10 01:28:17;;;;;;;;;;;18.50;74.40;;;;;;5035987;28;19952;-74
2022/05/10 01:30:44;;;;;;;;;;;18.50;74.40;;;;;;5056448;28;21962;-79
2022/05/10 01:33:32;;;;;;;;;;;18.50;74.40;;;;;;5033186;28;20032;-77
2022/05/10 01:36:04;;;;;;;;;;;18.50;74.40;;;;;;5052755;28;19931;-75
2022/05/10 01:38:35;;;;;;;;;;;18.50;74.30;;;;;;5050255;28;19925;-77
2022/05/10 01:41:06;;;;;;;;;;;18.50;74.40;;;;;;5054680;28;19979;-77
2022/05/10 01:43:38;;;;;;;;;;;18.50;74.40;;;;;;5033750;28;19954;-79
2022/05/10 01:46:10;;;;;;;;;;;18.50;74.40;;;;;;5057207;28;19979;-77
2022/05/10 01:48:37;;;;;;;;;;;18.50;74.40;;;;;;5047943;28;19929;-77
2022/05/10 01:51:07;;;;;;;;;;;18.50;74.50;;;;;;5052384;28;19924;-76
2022/05/10 01:53:35;;;;;;;;;;;18.50;74.50;;;;;;5057863;28;20011;-77
2022/05/10 01:56:02;;;;;;;;;;;18.50;74.40;;;;;;5037843;28;19925;-77
2022/05/10 01:58:31;;;;;;;;;;;18.50;74.40;;;;;;5056322;28;20083;-78
2022/05/10 02:01:00;;;;;;;;;;;18.50;74.40;;;;;;5055938;28;19925;-78
2022/05/10 02:03:29;;;;;;;;;;;18.50;74.40;;;;;;5052403;28;19924;-75
2022/05/10 02:06:00;;;;;;;;;;;18.50;74.40;;;;;;5061786;28;20402;-75
2022/05/10 02:08:35;;;;;;;;;;;18.40;74.20;;;;;;5044566;28;20025;-75
2022/05/10 02:11:11;;;;;;;;;;;18.50;74.40;;;;;;5049722;28;19928;-77
2022/05/10 02:13:40;;;;;;;;;;;18.50;74.40;;;;;;5069581;28;19944;-75
2022/05/10 02:16:11;;;;;;;;;;;18.50;74.40;;;;;;5056150;28;19924;-76
2022/05/10 02:18:41;;;;;;;;;;;18.40;74.40;;;;;;5060189;28;19994;-78
2022/05/10 02:21:10;;;;;;;;;;;18.50;74.50;;;;;;5058513;28;19929;-78
2022/05/10 02:23:39;;;;;;;;;;;18.40;74.40;;;;;;5062577;28;19929;-77
2022/05/10 02:26:09;;;;;;;;;;;18.40;74.40;;;;;;5058227;28;20436;-77
2022/05/10 02:28:39;;;;;;;;;;;18.50;74.40;;;;;;5047666;28;19928;-77
2022/05/10 02:31:08;;;;;;;;;;;18.50;74.50;;;;;;5053551;28;19924;-75
2022/05/10 02:33:36;;;;;;;;;;;18.40;74.30;;;;;;5059751;28;20015;-78
2022/05/10 02:36:03;;;;;;;;;;;18.40;74.30;;;;;;5026558;28;19978;-77
2022/05/10 02:38:31;;;;;;;;;;;18.40;74.30;;;;;;5047133;28;19932;-76
2022/05/10 02:40:59;;;;;;;;;;;18.40;74.30;;;;;;5046062;28;19925;-77
2022/05/10 02:43:27;;;;;;;;;;;18.40;74.30;;;;;;5047127;28;19928;-75
2022/05/10 02:45:55;;;;;;;;;;;18.50;74.40;;;;;;5059923;28;19929;-77
2022/05/10 02:48:23;;;;;;;;;;;18.40;74.40;;;;;;5050165;28;19925;-78
2022/05/10 02:50:51;;;;;;;;;;;18.40;74.30;;;;;;5046608;28;20473;-76
2022/05/10 02:53:17;;;;;;;;;;;18.40;74.40;;;;;;5054862;28;20401;-78
2022/05/10 02:55:46;;;;;;;;;;;18.40;74.30;;;;;;5051896;28;20390;-76
2022/05/10 02:58:23;;;;;;;;;;;18.40;74.30;;;;;;5052059;28;19943;-76
2022/05/10 03:00:51;;;;;;;;;;;18.40;74.30;;;;;;5035147;28;19933;-76
2022/05/10 03:03:21;;;;;;;;;;;18.40;74.30;;;;;;5050821;28;19931;-77
2022/05/10 03:05:48;;;;;;;;;;;18.40;74.40;;;;;;5053107;28;19943;-76
2022/05/10 03:08:16;;;;;;;;;;;18.40;74.40;;;;;;5055810;28;20012;-77
2022/05/10 03:10:43;;;;;;;;;;;18.40;74.50;;;;;;5047713;28;19925;-76
2022/05/10 03:13:10;;;;;;;;;;;18.40;74.50;;;;;;5058489;28;19929;-78
2022/05/10 03:15:37;;;;;;;;;;;18.40;74.50;;;;;;5053798;28;20015;-76
2022/05/10 03:18:03;;;;;;;;;;;18.40;74.60;;;;;;5048733;28;19971;-76
2022/05/10 03:20:30;;;;;;;;;;;18.40;74.50;;;;;;5057465;28;20009;-75
2022/05/10 03:22:57;;;;;;;;;;;18.40;74.50;;;;;;5060462;28;19970;-75
2022/05/10 03:25:26;;;;;;;;;;;18.30;74.50;;;;;;5051289;28;20018;-74
2022/05/10 03:27:53;;;;;;;;;;;18.40;74.50;;;;;;5056438;28;19932;-77
2022/05/10 03:30:19;;;;;;;;;;;18.40;74.60;;;;;;5051495;28;20292;-77
2022/05/10 03:32:46;;;;;;;;;;;18.30;74.40;;;;;;5060549;28;19934;-75
2022/05/10 03:35:15;;;;;;;;;;;18.30;74.50;;;;;;5054825;28;19939;-78
2022/05/10 03:37:42;;;;;;;;;;;18.30;74.50;;;;;;5061639;28;19925;-76
2022/05/10 03:40:10;;;;;;;;;;;18.30;74.50;;;;;;5048984;28;19935;-75
2022/05/10 03:42:43;;;;;;;;;;;18.40;74.70;;;;;;5062164;28;19939;-77
2022/05/10 03:45:10;;;;;;;;;;;18.30;74.70;;;;;;5054015;28;19932;-76
2022/05/10 03:47:37;;;;;;;;;;;18.30;74.70;;;;;;5061320;28;20027;-75
2022/05/10 03:50:04;;;;;;;;;;;18.40;74.80;;;;;;5039138;28;19924;-75
2022/05/10 03:52:31;;;;;;;;;;;18.40;74.80;;;;;;5057199;28;19928;-79
2022/05/10 03:54:57;;;;;;;;;;;18.30;74.70;;;;;;5057175;28;19925;-75
2022/05/10 03:57:24;;;;;;;;;;;18.30;74.80;;;;;;5054649;28;19999;-77
2022/05/10 03:59:52;;;;;;;;;;;18.30;74.70;;;;;;5050229;28;19924;-76
2022/05/10 04:02:19;;;;;;;;;;;18.30;74.70;;;;;;5057837;28;20007;-77
2022/05/10 04:04:46;;;;;;;;;;;18.30;74.70;;;;;;5055821;28;20563;-75
2022/05/10 04:07:13;;;;;;;;;;;18.30;74.70;;;;;;5054966;28;19931;-76
2022/05/10 04:09:39;;;;;;;;;;;18.30;74.70;;;;;;5054714;28;19936;-76
2022/05/10 04:12:06;;;;;;;;;;;18.30;74.80;;;;;;5054888;28;19976;-77
2022/05/10 04:14:33;;;;;;;;;;;18.30;74.90;;;;;;5055639;28;19931;-77
2022/05/10 04:17:01;;;;;;;;;;;18.30;74.80;;;;;;5054360;28;20031;-77
2022/05/10 04:19:27;;;;;;;;;;;18.30;74.80;;;;;;5058604;28;19925;-76
2022/05/10 04:21:54;;;;;;;;;;;18.30;74.80;;;;;;5035161;28;20154;-77
2022/05/10 04:24:22;;;;;;;;;;;18.30;74.90;;;;;;5055463;28;19989;-77
2022/05/10 04:26:49;;;;;;;;;;;18.30;74.80;;;;;;5055084;28;19928;-75
2022/05/10 04:29:17;;;;;;;;;;;18.30;74.80;;;;;;5063782;28;19935;-79
2022/05/10 04:31:43;;;;;;;;;;;18.30;74.70;;;;;;5060914;28;19925;-76
2022/05/10 04:34:11;;;;;;;;;;;18.20;74.60;;;;;;5036631;28;19938;-78
2022/05/10 04:36:38;;;;;;;;;;;18.30;74.80;;;;;;5057819;28;19928;-76
2022/05/10 04:39:05;;;;;;;;;;;18.20;75.40;;;;;;5056902;28;19931;-75
2022/05/10 04:41:32;;;;;;;;;;;18.30;74.70;;;;;;5054850;28;19928;-78
2022/05/10 04:44:01;;;;;;;;;;;18.30;74.80;;;;;;5053921;28;20395;-75
2022/05/10 04:46:28;;;;;;;;;;;18.30;74.80;;;;;;5047237;28;19939;-78
2022/05/10 04:48:55;;;;;;;;;;;18.30;74.70;;;;;;5045597;28;19925;-77
2022/05/10 04:51:23;;;;;;;;;;;18.30;74.90;;;;;;5049283;28;19924;-76
2022/05/10 04:53:49;;;;;;;;;;;18.30;74.90;;;;;;5030734;28;19963;-78
2022/05/10 04:56:16;;;;;;;;;;;18.30;74.90;;;;;;5027861;28;19955;-77
2022/05/10 04:58:44;;;;;;;;;;;18.30;75.00;;;;;;5047510;28;19924;-76
2022/05/10 05:01:12;;;;;;;;;;;18.30;75.10;;;;;;5052016;28;19924;-77
2022/05/10 05:03:42;;;;;;;;;;;18.30;75.10;;;;;;5057614;28;19924;-80
2022/05/10 05:06:09;;;;;;;;;;;18.30;75.20;;;;;;5053842;28;19929;-75
2022/05/10 05:08:37;;;;;;;;;;;18.30;75.30;;;;;;5043326;28;19924;-76
2022/05/10 05:11:03;;;;;;;;;;;18.30;75.30;;;;;;5051726;28;19925;-76
2022/05/10 05:13:30;;;;;;;;;;;18.40;75.40;;;;;;5051023;28;19928;-78
2022/05/10 05:15:57;;;;;;;;;;;18.30;75.40;;;;;;5056260;28;19944;-75
2022/05/10 05:18:24;;;;;;;;;;;18.30;75.40;;;;;;5048426;28;19925;-79
2022/05/10 05:20:50;;;;;;;;;;;18.30;75.30;;;;;;5051816;28;19935;-76
2022/05/10 05:23:18;;;;;;;;;;;18.20;75.80;;;;;;5047976;28;19944;-79
2022/05/10 05:25:46;;;;;;;;;;;18.30;75.90;;;;;;5044008;28;19928;-76
2022/05/10 05:28:13;;;;;;;;;;;18.40;76.00;;;;;;5053265;28;19928;-77
2022/05/10 05:30:40;;;;;;;;;;;18.40;75.60;;;;;;5042992;28;19925;-76
2022/05/10 05:33:07;;;;;;;;;;;18.30;75.40;;;;;;5056015;28;19928;-76
2022/05/10 05:35:34;;;;;;;;;;;18.40;75.30;;;;;;5056303;28;19924;-79
2022/05/10 05:38:01;;;;;;;;;;;18.30;75.20;;;;;;5058198;28;19932;-79
2022/05/10 05:40:28;;;;;;;;;;;18.40;75.50;;;;;;5057867;28;19935;-77
2022/05/10 05:42:56;;;;;;;;;;;18.40;75.40;;;;;;5039769;28;19924;-77
2022/05/10 05:45:24;;;;;;;;;;;18.40;75.40;;;;;;5051862;28;19928;-79
2022/05/10 05:47:51;;;;;;;;;;;18.40;75.50;;;;;;5040174;28;19940;-75
2022/05/10 05:50:19;;;;;;;;;;;18.40;75.40;;;;;;5040595;28;19982;-76
2022/05/10 05:52:46;;;;;;;;;;;18.40;75.60;;;;;;5062682;28;19928;-78
2022/05/10 05:55:13;;;;;;;;;;;18.40;75.50;;;;;;5057610;28;20394;-76
2022/05/10 05:57:40;;;;;;;;;;;18.40;75.50;;;;;;5057276;28;19925;-77
2022/05/10 06:00:10;;;;;;;;;;;18.40;75.40;;;;;;5054518;28;19924;-75
2022/05/10 06:02:37;;;;;;;;;;;18.40;75.30;;;;;;5056548;28;19932;-77
2022/05/10 06:05:05;;;;;;;;;;;18.40;75.50;;;;;;5054647;28;19925;-76
2022/05/10 06:07:32;;;;;;;;;;;18.50;75.40;;;;;;5040569;28;19975;-76
2022/05/10 06:09:59;;;;;;;;;;;18.40;75.20;;;;;;5056736;28;19938;-78
2022/05/10 06:12:25;;;;;;;;;;;18.50;75.60;;;;;;5049352;28;19986;-77
2022/05/10 06:14:53;;;;;;;;;;;18.50;75.50;;;;;;5055109;28;19924;-77
2022/05/10 06:17:23;;;;;;;;;;;18.60;75.50;;;;;;5059510;28;20266;-77
2022/05/10 06:19:50;;;;;;;;;;;18.50;75.30;;;;;;5060038;28;19932;-76
2022/05/10 06:22:17;;;;;;;;;;;18.50;75.20;;;;;;5060555;28;20367;-77
2022/05/10 06:24:44;;;;;;;;;;;18.50;75.40;;;;;;5059075;28;19925;-76
2022/05/10 06:27:12;;;;;;;;;;;18.50;75.40;;;;;;5059517;28;19932;-75
2022/05/10 06:29:39;;;;;;;;;;;18.50;75.40;;;;;;5060388;28;20050;-77
2022/05/10 06:32:06;;;;;;;;;;;18.50;75.40;;;;;;5059003;28;19963;-78
2022/05/10 06:34:34;;;;;;;;;;;18.50;75.50;;;;;;5062853;28;19931;-78
2022/05/10 06:37:00;;;;;;;;;;;18.50;75.50;;;;;;5058217;28;19933;-77
2022/05/10 06:39:27;;;;;;;;;;;18.50;75.50;;;;;;5064403;28;19978;-77
2022/05/10 06:41:53;;;;;;;;;;;18.50;75.50;;;;;;5062553;28;19928;-76
2022/05/10 06:44:20;;;;;;;;;;;18.50;75.50;;;;;;5063263;28;19929;-77
2022/05/10 06:46:47;;;;;;;;;;;18.50;75.50;;;;;;5074716;28;20182;-77
2022/05/10 06:49:13;;;;;;;;;;;18.50;75.50;;;;;;5070708;28;19978;-76
2022/05/10 06:51:41;;;;;;;;;;;18.50;75.50;;;;;;5057135;28;19925;-78
2022/05/10 06:54:08;;;;;;;;;;;18.50;75.50;;;;;;5051564;28;19932;-78
2022/05/10 06:56:35;;;;;;;;;;;18.50;75.50;;;;;;5059296;28;19925;-79
2022/05/10 06:59:01;;;;;;;;;;;18.50;75.50;;;;;;5051423;28;19932;-77
2022/05/10 07:01:28;;;;;;;;;;;18.50;75.50;;;;;;5065905;28;19924;-78
2022/05/10 07:03:55;;;;;;;;;;;18.50;75.50;;;;;;5053740;28;19925;-77
2022/05/10 07:06:23;;;;;;;;;;;18.50;75.40;;;;;;5057762;28;19928;-77
2022/05/10 07:08:52;;;;;;;;;;;18.50;75.50;;;;;;5054634;28;19928;-76
2022/05/10 07:11:18;;;;;;;;;;;18.50;75.40;;;;;;5073752;28;19963;-78
2022/05/10 07:13:45;;;;;;;;;;;18.50;75.30;;;;;;5031448;28;19929;-77
2022/05/10 07:16:12;;;;;;;;;;;18.50;75.30;;;;;;5051827;28;19932;-75
2022/05/10 07:18:39;;;;;;;;;;;18.50;75.20;;;;;;5050332;28;19948;-76
2022/05/10 07:21:06;;;;;;;;;;;18.50;75.20;;;;;;5054591;28;19977;-76
2022/05/10 07:23:33;;;;;;;;;;;18.60;75.40;;;;;;5050159;28;19924;-78
2022/05/10 07:26:01;;;;;;;;;;;18.50;75.50;;;;;;5060743;28;19924;-75
2022/05/10 07:28:29;;;;;;;;;;;18.60;76.10;;;;;;5059353;28;19924;-77
2022/05/10 07:30:56;;;;;;;;;;;18.60;77.00;;;;;;5060686;28;19924;-76
2022/05/10 07:33:24;;;;;;;;;;;18.60;77.20;;;;;;5056667;28;19924;-77
2022/05/10 07:38:36;;;;;;;;;;;18.70;77.40;;;;;;5053343;28;19977;-74
2022/05/10 07:41:04;;;;;;;;;;;18.70;77.30;;;;;;5040319;28;19960;-78
2022/05/10 07:43:33;;;;;;;;;;;18.70;77.60;;;;;;5058000;28;19931;-75
2022/05/10 07:46:00;;;;;;;;;;;18.70;77.60;;;;;;5055528;28;19932;-77
2022/05/10 07:48:27;;;;;;;;;;;18.70;77.50;;;;;;5053541;28;20421;-78
2022/05/10 07:50:53;;;;;;;;;;;18.70;77.60;;;;;;5056337;28;19963;-75
2022/05/10 07:53:20;;;;;;;;;;;18.70;77.70;;;;;;5052197;28;20024;-75
2022/05/10 07:55:47;;;;;;;;;;;18.80;77.80;;;;;;5054557;28;19937;-76
2022/05/10 07:58:15;;;;;;;;;;;18.70;77.50;;;;;;5057529;28;19940;-75
2022/05/10 08:00:42;;;;;;;;;;;18.80;78.20;;;;;;5067112;28;19935;-78
2022/05/10 08:03:10;;;;;;;;;;;18.80;77.90;;;;;;5052627;28;19932;-76
2022/05/10 08:05:36;;;;;;;;;;;18.80;78.20;;;;;;5050557;28;20026;-77
2022/05/10 08:08:03;;;;;;;;;;;18.80;78.20;;;;;;5068625;28;19931;-78
2022/05/10 08:10:30;;;;;;;;;;;18.80;78.30;;;;;;5067135;28;20033;-77
2022/05/10 08:12:57;;;;;;;;;;;18.80;78.30;;;;;;5051508;28;20364;-80
2022/05/10 08:15:25;;;;;;;;;;;18.80;78.10;;;;;;5058332;28;19924;-78
2022/05/10 08:17:52;;;;;;;;;;;18.80;77.50;;;;;;5053932;28;19924;-81
2022/05/10 08:20:19;;;;;;;;;;;18.80;77.50;;;;;;5058892;28;19970;-77
2022/05/10 08:22:46;;;;;;;;;;;18.80;77.40;;;;;;5053823;28;19931;-74
2022/05/10 08:25:13;;;;;;;;;;;18.80;77.30;;;;;;5057313;28;20007;-76
2022/05/10 08:27:39;;;;;;;;;;;18.80;77.30;;;;;;5057441;28;20134;-77
2022/05/10 08:30:18;;;;;;;;;;;18.80;77.40;;;;;;5060096;28;19925;-76
2022/05/10 08:32:46;;;;;;;;;;;18.80;77.30;;;;;;5058477;28;20016;-76
2022/05/10 08:35:12;;;;;;;;;;;18.80;77.30;;;;;;5060899;28;19931;-75
2022/05/10 08:37:39;;;;;;;;;;;18.80;77.30;;;;;;5058770;28;19933;-75
2022/05/10 08:40:06;;;;;;;;;;;18.80;77.30;;;;;;5059372;28;19925;-76
2022/05/10 08:42:34;;;;;;;;;;;18.80;77.30;;;;;;5054859;28;19990;-77
2022/05/10 08:45:05;;;;;;;;;;;18.80;77.30;;;;;;5057612;28;21519;-74
2022/05/10 08:47:32;;;;;;;;;;;18.80;77.70;;;;;;5059298;28;20034;-75
2022/05/10 08:50:01;;;;;;;;;;;18.80;77.70;;;;;;5062160;28;20007;-76
2022/05/10 08:52:30;;;;;;;;;;;18.80;77.50;;;;;;5057699;28;19924;-76
2022/05/10 08:54:58;;;;;;;;;;;18.80;77.30;;;;;;5050409;28;19925;-75
2022/05/10 08:57:32;;;;;;;;;;;18.80;77.30;;;;;;5036862;28;19928;-74
2022/05/10 09:00:01;;;;;;;;;;;18.80;77.30;;;;;;5050108;28;19990;-76
2022/05/10 09:02:31;;;;;;;;;;;18.80;77.30;;;;;;5059741;28;19970;-75
2022/05/10 09:05:01;;;;;;;;;;;18.80;77.30;;;;;;5069184;28;19954;-75
2022/05/10 09:07:35;;;;;;;;;;;18.80;77.20;;;;;;5068427;28;20397;-76
2022/05/10 09:10:04;;;;;;;;;;;18.80;77.10;;;;;;5050452;28;20116;-76
2022/05/10 09:12:35;;;;;;;;;;;18.80;77.30;;;;;;5059282;28;19924;-77
2022/05/10 09:15:03;;;;;;;;;;;18.90;77.50;;;;;;5056684;28;20009;-75
2022/05/10 09:17:32;;;;;;;;;;;18.90;77.40;;;;;;5050279;28;20048;-74
2022/05/10 09:19:59;;;;;;;;;;;18.90;77.70;;;;;;5054388;28;19990;-77
2022/05/10 09:22:34;;;;;;;;;;;18.90;77.50;;;;;;5039830;28;20650;-76
2022/05/10 09:25:03;;;;;;;;;;;18.90;78.00;;;;;;5039611;28;19982;-74
2022/05/10 09:27:32;;;;;;;;;;;19.00;79.10;;;;;;5061093;28;19924;-76
2022/05/10 09:29:59;;;;;;;;;;;19.00;80.00;;;;;;5060231;28;20368;-76
2022/05/10 09:35:28;;;;;;;;;;;19.00;80.00;;;;;;5000462;28;19933;-77
2022/05/10 09:37:56;;;;;;;;;;;19.10;80.00;;;;;;4999230;28;20065;-76
2022/05/10 09:40:32;;;;;;;;;;;19.10;79.30;;;;;;5024895;28;20041;-77
2022/05/10 09:43:13;;;;;;;;;;;19.00;79.00;;;;;;5062138;28;19978;-76
2022/05/10 09:45:40;;;;;;;;;;;19.00;78.80;;;;;;5053268;28;20483;-78
2022/05/10 09:48:12;;;;;;;;;;;19.00;78.90;;;;;;5043909;28;20341;-77
2022/05/10 09:50:41;;;;;;;;;;;19.00;78.80;;;;;;5054202;28;19931;-77
2022/05/10 09:53:10;;;;;;;;;;;19.00;78.80;;;;;;5063046;28;20020;-76
2022/05/10 09:55:39;;;;;;;;;;;19.00;78.70;;;;;;5053466;28;19940;-78
2022/05/10 09:58:12;;;;;;;;;;;19.00;78.80;;;;;;5062272;28;19928;-75
2022/05/10 10:00:41;;;;;;;;;;;19.00;78.60;;;;;;5062308;28;19970;-78
2022/05/10 10:03:08;;;;;;;;;;;19.00;78.40;;;;;;5062434;28;20453;-77
2022/05/10 10:05:36;;;;;;;;;;;19.00;78.30;;;;;;5061912;28;20012;-76
2022/05/10 10:08:03;;;;;;;;;;;19.00;78.40;;;;;;5061769;28;20410;-76
2022/05/10 10:10:31;;;;;;;;;;;19.00;78.30;;;;;;5061052;28;19925;-78
2022/05/10 10:13:00;;;;;;;;;;;19.00;78.30;;;;;;5044768;28;19930;-77
2022/05/10 10:15:32;;;;;;;;;;;19.00;78.20;;;;;;5061193;28;19974;-76
2022/05/10 10:18:00;;;;;;;;;;;19.00;78.10;;;;;;5044874;28;19986;-78
2022/05/10 10:20:32;;;;;;;;;;;19.00;78.10;;;;;;5043616;28;20363;-78
2022/05/10 10:23:00;;;;;;;;;;;19.00;78.10;;;;;;5057864;28;20019;-78
2022/05/10 10:25:31;;;;;;;;;;;19.00;78.10;;;;;;5059678;28;19998;-75
2022/05/10 10:28:00;;;;;;;;;;;19.00;78.10;;;;;;5064426;28;19924;-76
2022/05/10 10:30:28;;;;;;;;;;;19.00;78.40;;;;;;5059955;28;19951;-75
2022/05/10 10:32:59;;;;;;;;;;;19.00;78.10;;;;;;5044192;28;20028;-77
2022/05/10 10:35:32;;;;;;;;;;;19.00;78.10;;;;;;5056747;28;19963;-77
2022/05/10 10:38:00;;;;;;;;;;;19.10;78.20;;;;;;5062876;28;19951;-75
2022/05/10 10:40:30;;;;;;;;;;;19.10;78.40;;;;;;5052111;28;19989;-77
2022/05/10 10:43:02;;;;;;;;;;;19.10;78.30;;;;;;5059933;28;19928;-75
2022/05/10 10:45:33;;;;;;;;;;;19.10;78.20;;;;;;5060886;28;19928;-78
2022/05/10 10:48:05;;;;;;;;;;;19.10;78.20;;;;;;5059441;28;19990;-75
2022/05/10 10:50:33;;;;;;;;;;;19.10;78.10;;;;;;5053231;28;19972;-75
2022/05/10 10:53:00;;;;;;;;;;;19.10;78.00;;;;;;5043375;28;19932;-76
2022/05/10 10:55:31;;;;;;;;;;;19.10;78.10;;;;;;5057823;28;20027;-76
2022/05/10 10:58:02;;;;;;;;;;;19.10;78.80;;;;;;5059713;28;19924;-78
2022/05/10 11:00:33;;;;;;;;;;;19.20;78.10;;;;;;5059259;28;19924;-74
2022/05/10 11:03:15;;;;;;;;;;;19.20;78.00;;;;;;5060363;28;19925;-75
2022/05/10 11:05:57;;;;;;;;;;;19.20;78.00;;;;;;5061628;28;19974;-75
2022/05/10 11:08:32;;;;;;;;;;;19.20;78.00;;;;;;5071645;28;19931;-77
2022/05/10 11:11:04;;;;;;;;;;;19.20;78.00;;;;;;5058817;28;19928;-77
2022/05/10 11:13:35;;;;;;;;;;;19.20;78.00;;;;;;5050473;28;20379;-76
2022/05/10 11:16:10;;;;;;;;;;;19.20;77.90;;;;;;5062128;28;19929;-77
2022/05/10 11:18:44;;;;;;;;;;;19.20;77.90;;;;;;5062763;28;19931;-77
2022/05/10 11:21:18;;;;;;;;;;;19.20;77.80;;;;;;5069391;28;19939;-75
2022/05/10 11:23:49;;;;;;;;;;;19.20;78.00;;;;;;5067980;28;19944;-74
2022/05/10 11:26:22;;;;;;;;;;;19.20;78.10;;;;;;5069916;28;19997;-75
2022/05/10 11:29:08;;;;;;;;;;;19.20;77.90;;;;;;5061692;28;19931;-74
2022/05/10 11:31:40;;;;;;;;;;;19.20;78.00;;;;;;5058254;28;19928;-77
2022/05/10 11:34:18;;;;;;;;;;;19.30;77.80;;;;;;5062277;28;19960;-75
2022/05/10 11:36:48;;;;;;;;;;;19.30;77.80;;;;;;5059967;28;19932;-75
2022/05/10 11:39:33;;;;;;;;;;;19.30;77.50;;;;;;5060517;28;19932;-76
2022/05/10 11:42:06;;;;;;;;;;;19.30;77.70;;;;;;5047910;28;19930;-75
2022/05/10 11:44:40;;;;;;;;;;;19.30;77.50;;;;;;5058433;28;19924;-75
2022/05/10 11:47:18;;;;;;;;;;;19.30;77.60;;;;;;5059611;28;19932;-75
2022/05/10 11:50:06;;;;;;;;;;;19.30;77.50;;;;;;5052205;28;19924;-76
2022/05/10 11:52:45;;;;;;;;;;;19.30;77.30;;;;;;5056043;28;19925;-73
2022/05/10 11:55:17;;;;;;;;;;;19.40;77.20;;;;;;5042764;28;19924;-75
2022/05/10 11:57:44;;;;;;;;;;;19.40;77.30;;;;;;5060709;28;19928;-74
2022/05/10 12:00:29;;;;;;;;;;;19.40;77.20;;;;;;5060635;28;19925;-77
2022/05/10 12:02:58;;;;;;;;;;;19.40;77.20;;;;;;5062365;28;19932;-77
2022/05/10 12:05:26;;;;;;;;;;;19.30;77.10;;;;;;5059069;28;20291;-75
2022/05/10 12:07:53;;;;;;;;;;;19.40;77.20;;;;;;5060503;28;19952;-76
2022/05/10 12:10:31;;;;;;;;;;;19.40;76.90;;;;;;5057306;28;21110;-77
2022/05/10 12:12:59;;;;;;;;;;;19.50;76.30;;;;;;5059052;28;19931;-77
2022/05/10 12:21:21;;;;;;;;;;;19.50;76.40;;;;;;5058961;28;19925;-75
2022/05/10 12:24:02;;;;;;;;;;;19.50;76.50;;;;;;5026822;28;20040;-74
2022/05/10 12:26:35;;;;;;;;;;;19.50;76.50;;;;;;5055221;28;19952;-75
2022/05/10 12:29:02;;;;;;;;;;;19.50;76.50;;;;;;5042230;28;20003;-76
2022/05/10 12:31:52;;;;;;;;;;;19.50;76.50;;;;;;5052552;28;19940;-76
2022/05/10 12:34:37;;;;;;;;;;;19.40;76.40;;;;;;5058989;28;19929;-76
2022/05/10 12:37:24;;;;;;;;;;;19.50;76.50;;;;;;5059279;28;19935;-75
2022/05/10 12:39:54;;;;;;;;;;;19.40;76.40;;;;;;5060135;28;19955;-75
2022/05/10 12:42:24;;;;;;;;;;;19.50;76.50;;;;;;5055051;28;19928;-74
2022/05/10 12:44:56;;;;;;;;;;;19.50;76.40;;;;;;5042997;28;19925;-75
2022/05/10 12:47:35;;;;;;;;;;;19.40;76.30;;;;;;5054975;28;19933;-75
2022/05/10 12:50:08;;;;;;;;;;;19.40;76.30;;;;;;5037284;28;19924;-75
2022/05/10 12:52:40;;;;;;;;;;;19.40;76.30;;;;;;5050999;28;19932;-76
2022/05/10 12:55:09;;;;;;;;;;;19.50;76.30;;;;;;5059184;28;19932;-75
2022/05/10 12:57:40;;;;;;;;;;;19.50;75.50;;;;;;5040709;28;19940;-77
2022/05/10 13:00:11;;;;;;;;;;;19.60;75.70;;;;;;5059112;28;20334;-78
2022/05/10 13:02:39;;;;;;;;;;;19.60;75.80;;;;;;5056431;28;20409;-76
2022/05/10 13:05:14;;;;;;;;;;;19.60;75.90;;;;;;5059490;28;19932;-77
2022/05/10 13:07:48;;;;;;;;;;;19.50;75.90;;;;;;5054613;28;19924;-76
2022/05/10 13:10:20;;;;;;;;;;;19.60;75.80;;;;;;5058363;28;19939;-75
2022/05/10 13:12:49;;;;;;;;;;;19.60;76.00;;;;;;5039466;28;20030;-77
2022/05/10 13:15:17;;;;;;;;;;;19.50;75.80;;;;;;5057973;28;19932;-73
2022/05/10 13:17:46;;;;;;;;;;;19.50;75.80;;;;;;5058731;28;19924;-74
2022/05/10 13:20:13;;;;;;;;;;;19.50;75.90;;;;;;5060034;28;19948;-74
2022/05/10 13:22:47;;;;;;;;;;;19.60;76.00;;;;;;5058130;28;20604;-76
2022/05/10 13:25:14;;;;;;;;;;;19.50;75.80;;;;;;5058715;28;20019;-74
2022/05/10 13:27:43;;;;;;;;;;;19.50;75.70;;;;;;5055491;28;19971;-75
2022/05/10 13:30:12;;;;;;;;;;;19.50;75.60;;;;;;5059376;28;19975;-75
2022/05/10 13:32:43;;;;;;;;;;;19.50;75.80;;;;;;5057892;28;19952;-77
2022/05/10 13:35:11;;;;;;;;;;;19.50;75.80;;;;;;5060249;28;19985;-75
2022/05/10 13:37:38;;;;;;;;;;;19.60;75.70;;;;;;5057602;28;20025;-76
2022/05/10 13:40:12;;;;;;;;;;;19.50;75.40;;;;;;5063036;28;19931;-75
2022/05/10 13:42:39;;;;;;;;;;;19.60;75.40;;;;;;5071580;28;19925;-76
2022/05/10 13:45:09;;;;;;;;;;;19.60;75.20;;;;;;5063837;28;20016;-74
2022/05/10 13:47:36;;;;;;;;;;;19.60;75.00;;;;;;5039802;28;20363;-74
2022/05/10 13:50:03;;;;;;;;;;;19.50;74.90;;;;;;5041069;28;20295;-75
2022/05/10 13:52:32;;;;;;;;;;;19.60;74.90;;;;;;5037505;28;20319;-75
2022/05/10 13:55:00;;;;;;;;;;;19.60;74.80;;;;;;5047336;28;20010;-75
2022/05/10 13:57:28;;;;;;;;;;;19.60;74.70;;;;;;5053604;28;19932;-73
2022/05/10 13:59:56;;;;;;;;;;;19.60;75.50;;;;;;5055029;28;19928;-74
2022/05/10 14:02:25;;;;;;;;;;;19.60;74.70;;;;;;5053183;28;19939;-75
2022/05/10 14:04:54;;;;;;;;;;;19.60;74.20;;;;;;5051867;28;19949;-74
2022/05/10 14:07:25;;;;;;;;;;;19.60;74.20;;;;;;5062505;28;19993;-75
2022/05/10 14:09:53;;;;;;;;;;;19.60;74.40;;;;;;5053601;28;20375;-76
2022/05/10 14:12:27;;;;;;;;;;;19.60;74.50;;;;;;5058742;28;19932;-73
2022/05/10 14:14:57;;;;;;;;;;;19.60;74.60;;;;;;5027989;28;20015;-74
2022/05/10 14:17:25;;;;;;;;;;;19.60;74.40;;;;;;5050603;28;20009;-74
2022/05/10 14:19:54;;;;;;;;;;;19.60;74.40;;;;;;5043167;28;19944;-76
2022/05/10 14:22:22;;;;;;;;;;;19.60;74.40;;;;;;5057056;28;19925;-75
2022/05/10 14:24:49;;;;;;;;;;;19.60;74.50;;;;;;5057698;28;19951;-76
2022/05/10 14:27:19;;;;;;;;;;;19.70;74.50;;;;;;5065944;28;19936;-75
2022/05/10 14:29:48;;;;;;;;;;;19.60;74.40;;;;;;5061820;28;19928;-74
2022/05/10 14:32:29;;;;;;;;;;;19.60;74.50;;;;;;5040179;28;19924;-74
2022/05/10 14:35:25;;;;;;;;;;;19.60;74.50;;;;;;5060586;28;19924;-76
2022/05/10 14:37:53;;;;;;;;;;;19.60;74.40;;;;;;5027038;28;19983;-74
2022/05/10 14:40:25;;;;;;;;;;;19.60;74.50;;;;;;5058962;28;20906;-76